Time;durP1;ratioP1;P1;durP2;ratioP2;P2;SDS_P1;SDS_P2;PMS_P1;PMS_P2;Temp;Humidity;BMP_temperature;BMP_pressure;BME280_temperature;BME280_humidity;BME280_pressure;Samples;Min_cycle;Max_cycle;Signal;HPM_P1;HPM_P2
2022/05/20 00:00:43;;;;;;;10.68;9.68;;;17.10;96.80;;;;;;5013697;28;98529;-71
2022/05/20 00:03:10;;;;;;;12.85;10.18;;;17.10;96.80;;;;;;5016096;28;99194;-71
2022/05/20 00:05:37;;;;;;;11.30;10.35;;;17.00;96.90;;;;;;5033063;28;101594;-71
2022/05/20 00:08:05;;;;;;;11.05;10.10;;;17.00;96.90;;;;;;5000054;28;98522;-71
2022/05/20 00:10:32;;;;;;;9.93;9.02;;;16.90;96.80;;;;;;5034637;28;98489;-71
2022/05/20 00:13:00;;;;;;;11.88;10.70;;;16.90;97.00;;;;;;5017773;28;98885;-71
2022/05/20 00:15:29;;;;;;;8.38;7.68;;;16.80;97.30;;;;;;5016080;28;101132;-71
2022/05/20 00:17:56;;;;;;;7.70;7.07;;;16.80;96.80;;;;;;5035681;28;98562;-71
2022/05/20 00:20:26;;;;;;;6.22;5.70;;;16.70;96.90;;;;;;5016720;28;99308;-71
2022/05/20 00:22:53;;;;;;;7.13;5.00;;;16.60;96.80;;;;;;5034777;28;99220;-71
2022/05/20 00:28:08;;;;;;;6.18;5.10;;;16.60;96.80;;;;;;5016734;28;98479;-71
2022/05/20 00:30:35;;;;;;;5.55;4.80;;;16.40;96.50;;;;;;5035082;28;98632;-71
2022/05/20 00:33:02;;;;;;;6.60;4.70;;;16.40;96.70;;;;;;5016901;28;99303;-71
2022/05/20 00:35:29;;;;;;;6.10;5.25;;;16.30;97.10;;;;;;5033025;28;98974;-71
2022/05/20 00:37:56;;;;;;;5.50;5.00;;;16.20;97.20;;;;;;5017195;28;97793;-71
2022/05/20 00:40:25;;;;;;;6.32;5.63;;;16.20;97.60;;;;;;5016786;28;98667;-71
2022/05/20 00:43:31;;;;;;;10.43;5.13;;;16.20;97.30;;;;;;5034121;28;99330;-71
2022/05/20 00:46:01;;;;;;;4.65;4.25;;;16.30;97.00;;;;;;5002261;28;99355;-71
2022/05/20 00:48:29;;;;;;;5.97;4.47;;;16.20;96.70;;;;;;5034753;28;98467;-71
2022/05/20 00:51:04;;;;;;;4.20;3.85;;;16.10;96.70;;;;;;5034769;28;98538;-71
2022/05/20 00:53:37;;;;;;;5.47;4.43;;;16.10;96.90;;;;;;5034966;28;99815;-71
2022/05/20 00:56:07;;;;;;;6.32;5.72;;;16.10;97.10;;;;;;5034474;28;98978;-71
2022/05/20 00:58:34;;;;;;;5.57;4.97;;;16.20;97.50;;;;;;5034586;28;98561;-71
2022/05/20 01:01:02;;;;;;;5.55;5.05;;;16.10;97.30;;;;;;5016857;28;98676;-71
2022/05/20 01:03:30;;;;;;;5.10;4.70;;;16.10;97.30;;;;;;5016452;28;99639;-71
2022/05/20 01:05:59;;;;;;;6.20;5.68;;;16.10;97.20;;;;;;5015667;28;100931;-71
2022/05/20 01:08:29;;;;;;;6.45;5.85;;;16.20;97.20;;;;;;5034510;28;98826;-71
2022/05/20 01:10:57;;;;;;;5.22;4.72;;;16.20;97.10;;;;;;5033939;28;99204;-71
2022/05/20 01:13:28;;;;;;;6.93;5.68;;;16.20;96.80;;;;;;5015933;28;101786;-71
2022/05/20 01:15:55;;;;;;;5.85;5.35;;;16.20;96.70;;;;;;5032379;28;101512;-71
2022/05/20 01:18:23;;;;;;;6.47;5.75;;;16.20;96.60;;;;;;5034533;28;98620;-71
2022/05/20 01:20:54;;;;;;;5.90;5.43;;;16.30;96.60;;;;;;5034236;28;98872;-71
2022/05/20 01:23:24;;;;;;;7.38;6.53;;;16.30;96.70;;;;;;5032174;28;101927;-71
2022/05/20 01:25:54;;;;;;;6.10;5.38;;;16.40;96.70;;;;;;5032359;28;101526;-71
2022/05/20 01:28:23;;;;;;;6.32;5.72;;;16.40;96.50;;;;;;5034232;28;97854;-71
2022/05/20 01:31:03;;;;;;;6.57;5.35;;;16.40;96.60;;;;;;5033948;28;98480;-71
2022/05/20 01:33:39;;;;;;;5.82;5.13;;;16.30;96.30;;;;;;5015462;28;102051;-71
2022/05/20 01:36:10;;;;;;;7.05;6.20;;;16.30;96.60;;;;;;5033411;28;99346;-71
2022/05/20 01:38:38;;;;;;;6.97;6.43;;;16.20;96.60;;;;;;5034310;28;98474;-71
2022/05/20 01:41:37;;;;;;;6.32;4.50;;;16.10;96.40;;;;;;5032545;28;98544;-71
2022/05/20 01:44:09;;;;;;;6.65;4.53;;;16.10;96.40;;;;;;5033647;28;99497;-71
2022/05/20 01:47:01;;;;;;;5.40;4.57;;;16.00;96.50;;;;;;5033406;28;99144;-71
2022/05/20 01:49:33;;;;;;;8.15;5.50;;;16.00;96.50;;;;;;5032704;28;98580;-71
2022/05/20 01:52:25;;;;;;;6.22;5.20;;;16.00;96.60;;;;;;5034011;28;98943;-71
2022/05/20 01:55:08;;;;;;;7.82;5.93;;;15.90;96.70;;;;;;5031975;28;101046;-71
2022/05/20 01:57:54;;;;;;;6.47;5.88;;;15.90;96.80;;;;;;5015278;28;98478;-71
2022/05/20 02:00:25;;;;;;;6.60;6.00;;;15.90;96.80;;;;;;5016049;28;98606;-71
2022/05/20 02:02:58;;;;;;;7.90;5.82;;;15.80;96.90;;;;;;5031779;28;99258;-71
2022/05/20 02:05:36;;;;;;;8.05;6.13;;;15.70;97.00;;;;;;5031683;28;103896;-71
2022/05/20 02:08:26;;;;;;;6.80;5.97;;;15.80;97.10;;;;;;5014722;28;101584;-71
2022/05/20 02:11:16;;;;;;;7.45;6.68;;;15.80;97.10;;;;;;5032025;28;98567;-71
2022/05/20 02:13:47;;;;;;;6.88;5.72;;;15.80;97.20;;;;;;5031705;28;98556;-71
2022/05/20 02:16:27;;;;;;;9.73;6.30;;;15.70;97.40;;;;;;4998488;28;101911;-71
2022/05/20 02:19:10;;;;;;;7.22;6.63;;;15.70;97.40;;;;;;5033279;28;99012;-71
2022/05/20 02:21:42;;;;;;;7.03;6.33;;;15.60;97.60;;;;;;5015813;28;97829;-71
2022/05/20 02:24:12;;;;;;;9.88;5.82;;;15.50;97.70;;;;;;5033353;27;98528;-71
2022/05/20 02:26:48;;;;;;;7.43;5.30;;;15.50;97.80;;;;;;4997704;28;101824;-71
2022/05/20 02:29:21;;;;;;;6.80;6.20;;;15.40;97.80;;;;;;5032631;28;99225;-71
2022/05/20 02:32:17;;;;;;;8.95;8.05;;;15.30;98.00;;;;;;5031629;28;98555;-71
2022/05/20 02:34:44;;;;;;;8.77;7.43;;;15.30;98.20;;;;;;4985965;28;98540;-71
2022/05/20 02:37:25;;;;;;;7.72;7.03;;;15.20;98.30;;;;;;4997955;28;101955;-71
2022/05/20 02:39:53;;;;;;;6.93;6.22;;;15.20;98.30;;;;;;5032881;28;99020;-71
2022/05/20 02:42:21;;;;;;;7.70;7.00;;;15.10;98.10;;;;;;5031688;28;98705;-71
2022/05/20 02:44:48;;;;;;;7.00;6.40;;;15.00;98.20;;;;;;5032673;28;98982;-71
2022/05/20 02:47:16;;;;;;;7.35;6.60;;;15.00;98.40;;;;;;5033015;28;98534;-71
2022/05/20 02:49:43;;;;;;;8.15;7.28;;;14.90;98.60;;;;;;5014935;28;98590;-71
2022/05/20 02:52:10;;;;;;;7.95;7.20;;;14.80;98.70;;;;;;5032900;28;98559;-71
2022/05/20 02:54:37;;;;;;;12.02;7.53;;;14.80;98.80;;;;;;5014219;28;99327;-71
2022/05/20 02:57:05;;;;;;;7.68;6.97;;;14.80;99.00;;;;;;5032265;28;99392;-71
2022/05/20 03:05:03;;;;;;;7.55;6.85;;;14.70;98.80;;;;;;5014301;28;98620;-71
2022/05/20 03:07:30;;;;;;;8.32;7.50;;;14.70;98.90;;;;;;5014191;28;100745;-71
2022/05/20 03:09:57;;;;;;;9.00;8.18;;;14.70;98.90;;;;;;5013648;28;101615;-71
2022/05/20 03:12:26;;;;;;;7.80;6.55;;;14.70;98.80;;;;;;5032920;28;97764;-71
2022/05/20 03:14:53;;;;;;;8.73;7.15;;;14.70;98.70;;;;;;5032437;28;98515;-71
2022/05/20 03:17:20;;;;;;;8.63;7.50;;;14.80;98.70;;;;;;5032362;28;99314;-71
2022/05/20 03:19:47;;;;;;;7.55;6.80;;;14.80;98.80;;;;;;4997623;28;99792;-71
2022/05/20 03:22:13;;;;;;;9.25;7.68;;;14.90;98.90;;;;;;5014380;28;98576;-71
2022/05/20 03:24:42;;;;;;;8.02;7.25;;;14.90;98.90;;;;;;5014635;28;98478;-71
2022/05/20 03:27:09;;;;;;;8.15;7.40;;;15.00;98.80;;;;;;5031586;28;99149;-71
2022/05/20 03:29:35;;;;;;;10.75;9.85;;;15.00;98.80;;;;;;4997350;28;102234;-71
2022/05/20 03:32:03;;;;;;;9.38;8.48;;;15.10;98.80;;;;;;5014625;28;98523;-71
2022/05/20 03:34:30;;;;;;;9.10;8.20;;;15.10;98.80;;;;;;5031057;28;98592;-71
2022/05/20 03:36:58;;;;;;;9.70;7.45;;;15.10;98.90;;;;;;5032656;27;98495;-71
2022/05/20 03:39:25;;;;;;;10.00;8.43;;;15.10;98.90;;;;;;5017409;28;101026;-71
2022/05/20 03:41:52;;;;;;;9.73;8.82;;;15.00;99.00;;;;;;5017876;28;98599;-71
2022/05/20 03:44:19;;;;;;;8.93;7.45;;;15.10;99.00;;;;;;5017298;28;99284;-71
2022/05/20 03:46:51;;;;;;;9.18;7.43;;;15.10;99.00;;;;;;5035597;28;99326;-71
2022/05/20 03:49:19;;;;;;;10.55;9.45;;;15.10;98.90;;;;;;5035143;28;98967;-71
2022/05/20 03:51:48;;;;;;;9.63;8.55;;;15.10;99.00;;;;;;5035645;28;98484;-71
2022/05/20 03:54:17;;;;;;;10.45;8.57;;;15.00;99.00;;;;;;5017035;28;98969;-71
2022/05/20 03:56:44;;;;;;;10.85;8.45;;;15.10;99.00;;;;;;5035301;28;99307;-71
2022/05/20 03:59:12;;;;;;;10.25;8.60;;;15.00;98.90;;;;;;5034071;28;99116;-71
2022/05/20 04:01:59;;;;;;;9.82;8.88;;;15.00;98.90;;;;;;5034389;28;97808;-71
2022/05/20 04:04:37;;;;;;;10.77;9.45;;;15.10;99.00;;;;;;5017355;28;98614;-71
2022/05/20 04:07:11;;;;;;;10.60;9.60;;;15.10;99.00;;;;;;5035072;28;99294;-72
2022/05/20 04:09:38;;;;;;;11.48;9.77;;;15.10;98.90;;;;;;5034910;28;99329;-71
2022/05/20 04:12:08;;;;;;;9.93;8.90;;;15.10;98.90;;;;;;5035304;28;98484;-71
2022/05/20 04:14:35;;;;;;;10.95;9.75;;;15.10;98.90;;;;;;5017191;28;98880;-71
2022/05/20 04:17:03;;;;;;;12.13;11.05;;;15.10;98.90;;;;;;5000085;28;101876;-71
2022/05/20 04:19:33;;;;;;;10.32;9.10;;;15.10;98.80;;;;;;5016728;28;99073;-71
2022/05/20 04:22:07;;;;;;;10.93;9.80;;;15.10;98.80;;;;;;5034982;28;98468;-71
2022/05/20 04:24:35;;;;;;;11.68;9.48;;;15.10;98.90;;;;;;5033609;28;98627;-71
2022/05/20 04:27:02;;;;;;;10.48;9.52;;;15.10;98.90;;;;;;5000248;28;101047;-71
2022/05/20 04:29:28;;;;;;;12.35;11.25;;;15.20;98.90;;;;;;5016631;28;101047;-71
2022/05/20 04:31:56;;;;;;;12.88;11.38;;;15.20;99.00;;;;;;5034965;28;98947;-71
2022/05/20 04:34:24;;;;;;;10.27;9.35;;;15.30;99.00;;;;;;5015723;28;99292;-71
2022/05/20 04:36:51;;;;;;;11.60;10.52;;;15.50;99.00;;;;;;5016382;28;101753;-71
2022/05/20 04:39:19;;;;;;;12.30;11.25;;;15.70;98.90;;;;;;5033759;28;98896;-72
2022/05/20 04:47:24;;;;;;;11.90;10.80;;;16.20;98.00;;;;;;5034289;27;99307;-70
2022/05/20 04:49:51;;;;;;;12.77;11.68;;;16.30;97.60;;;;;;5015429;28;101886;-70
2022/05/20 04:52:18;;;;;;;11.55;10.32;;;16.30;97.40;;;;;;5033154;28;97751;-71
2022/05/20 04:54:55;;;;;;;10.85;9.75;;;16.40;97.20;;;;;;5034346;28;98508;-71
2022/05/20 04:57:44;;;;;;;10.85;9.75;;;16.40;97.20;;;;;;5016470;28;99885;-70
2022/05/20 05:00:21;;;;;;;11.55;10.25;;;16.40;97.10;;;;;;5015712;28;99361;-70
2022/05/20 05:02:48;;;;;;;12.07;10.13;;;16.40;97.10;;;;;;5034131;28;98522;-70
2022/05/20 05:05:18;;;;;;;12.77;11.43;;;16.30;97.20;;;;;;5033667;28;98585;-70
2022/05/20 05:07:49;;;;;;;13.10;10.60;;;16.30;97.20;;;;;;5032274;28;99341;-70
2022/05/20 05:10:19;;;;;;;11.10;10.20;;;16.40;97.10;;;;;;5015839;28;99156;-70
2022/05/20 05:12:46;;;;;;;11.68;10.48;;;16.40;97.00;;;;;;5033849;28;98646;-71
2022/05/20 05:15:14;;;;;;;12.23;10.93;;;16.40;97.00;;;;;;5015363;28;98690;-70
2022/05/20 05:20:29;;;;;;;12.80;9.93;;;16.50;96.80;;;;;;5033473;28;98551;-70
2022/05/20 05:22:57;;;;;;;13.02;11.75;;;16.70;96.60;;;;;;5016073;28;98643;-71
2022/05/20 05:25:26;;;;;;;11.57;10.50;;;16.90;96.50;;;;;;5033087;28;99211;-70
2022/05/20 05:27:53;;;;;;;12.10;10.00;;;17.10;96.10;;;;;;5033011;28;99333;-70
2022/05/20 05:30:22;;;;;;;12.93;10.15;;;17.20;95.80;;;;;;5032989;28;99145;-70
2022/05/20 05:32:50;;;;;;;10.93;9.82;;;17.40;95.80;;;;;;5033514;28;98529;-70
2022/05/20 05:35:23;;;;;;;11.10;9.82;;;17.50;95.60;;;;;;4998963;28;98635;-71
2022/05/20 05:37:51;;;;;;;12.07;10.88;;;17.60;95.30;;;;;;5034106;28;99409;-71
2022/05/20 05:40:20;;;;;;;13.63;10.38;;;17.60;95.00;;;;;;5032962;28;99145;-71
2022/05/20 05:42:48;;;;;;;12.98;11.55;;;17.70;95.10;;;;;;5033611;28;98292;-70
2022/05/20 05:45:19;;;;;;;12.27;10.73;;;17.70;95.00;;;;;;5015127;28;98580;-70
2022/05/20 05:47:51;;;;;;;13.18;10.55;;;17.90;94.70;;;;;;5014865;28;100509;-70
2022/05/20 05:50:20;;;;;;;13.75;10.98;;;17.90;94.40;;;;;;5032334;28;99238;-71
2022/05/20 05:52:54;;;;;;;15.73;11.07;;;18.00;94.40;;;;;;5015023;28;99274;-71
2022/05/20 05:55:22;;;;;;;14.60;10.48;;;18.00;94.20;;;;;;5033520;28;98397;-72
2022/05/20 05:57:48;;;;;;;12.88;10.80;;;17.90;94.20;;;;;;5014517;28;101990;-71
2022/05/20 06:00:16;;;;;;;13.15;10.88;;;17.90;94.30;;;;;;5031734;27;99067;-72
2022/05/20 06:02:44;;;;;;;12.38;11.10;;;17.90;94.20;;;;;;5032908;28;98549;-71
2022/05/20 06:05:11;;;;;;;13.13;11.82;;;17.80;94.30;;;;;;5031742;28;98600;-71
2022/05/20 06:07:38;;;;;;;12.93;11.63;;;17.70;94.50;;;;;;4998285;28;99703;-72
2022/05/20 06:10:05;;;;;;;13.82;11.95;;;17.70;94.60;;;;;;5032944;28;98892;-71
2022/05/20 06:12:33;;;;;;;12.15;10.38;;;17.70;94.40;;;;;;5014516;28;98569;-72
2022/05/20 06:15:09;;;;;;;12.00;10.75;;;17.70;94.50;;;;;;5031129;28;99360;-72
2022/05/20 06:17:36;;;;;;;14.35;11.95;;;17.90;94.40;;;;;;5030895;28;99265;-72
2022/05/20 06:20:04;;;;;;;13.48;11.10;;;17.80;94.30;;;;;;5014419;28;99122;-71
2022/05/20 06:22:31;;;;;;;14.80;11.70;;;17.90;94.10;;;;;;5032506;28;98574;-72
2022/05/20 06:24:58;;;;;;;15.63;11.82;;;17.90;94.10;;;;;;5031606;28;98686;-72
2022/05/20 06:27:26;;;;;;;13.18;11.15;;;17.90;94.10;;;;;;5030155;28;101777;-72
2022/05/20 06:29:53;;;;;;;13.07;10.20;;;17.90;93.90;;;;;;5031160;28;98924;-72
2022/05/20 06:32:20;;;;;;;10.93;9.77;;;18.10;93.70;;;;;;5032764;28;97771;-72
2022/05/20 06:40:21;;;;;;;11.65;8.38;;;18.40;92.70;;;;;;5014072;28;101684;-72
2022/05/20 06:42:47;;;;;;;12.98;9.73;;;18.30;92.90;;;;;;5033073;28;98442;-72
2022/05/20 06:45:16;;;;;;;11.32;9.48;;;18.30;93.30;;;;;;5032926;28;98491;-72
2022/05/20 06:47:43;;;;;;;12.85;10.50;;;18.50;93.10;;;;;;5014568;28;99483;-72
2022/05/20 06:50:12;;;;;;;10.43;9.30;;;18.70;92.90;;;;;;5031637;28;113039;-72
2022/05/20 06:52:39;;;;;;;12.15;7.88;;;18.90;92.50;;;;;;5014777;28;98406;-72
2022/05/20 06:55:08;;;;;;;8.88;7.97;;;19.20;92.00;;;;;;5033058;28;98500;-72
2022/05/20 06:57:38;;;;;;;9.25;8.00;;;19.40;91.60;;;;;;5032615;28;98511;-72
2022/05/20 07:00:07;;;;;;;11.27;9.75;;;19.60;91.30;;;;;;5032846;28;98895;-72
2022/05/20 07:02:34;;;;;;;12.35;7.35;;;19.70;91.10;;;;;;5014566;28;98611;-72
2022/05/20 07:05:04;;;;;;;11.35;9.45;;;19.80;90.90;;;;;;5014602;28;99386;-72
2022/05/20 07:07:32;;;;;;;10.68;8.07;;;19.90;90.60;;;;;;5013737;28;102647;-72
2022/05/20 07:09:59;;;;;;;10.45;8.05;;;20.00;90.50;;;;;;5032002;28;107722;-72
2022/05/20 07:12:26;;;;;;;7.53;5.43;;;20.10;89.70;;;;;;5032537;28;98618;-72
2022/05/20 07:14:53;;;;;;;5.75;4.60;;;20.10;85.40;;;;;;5032822;28;98527;-72
2022/05/20 07:17:21;;;;;;;6.45;4.60;;;20.00;84.70;;;;;;5032335;28;99368;-71
2022/05/20 07:19:50;;;;;;;9.27;5.13;;;19.90;85.10;;;;;;5014073;28;99164;-72
2022/05/20 07:22:17;;;;;;;8.82;6.32;;;19.80;86.00;;;;;;5033014;28;98225;-71
2022/05/20 07:24:44;;;;;;;7.53;6.32;;;19.80;87.10;;;;;;5032439;28;99266;-72
2022/05/20 07:27:11;;;;;;;8.20;6.82;;;19.80;87.20;;;;;;5013798;28;99330;-71
2022/05/20 07:29:38;;;;;;;8.82;5.65;;;19.80;86.90;;;;;;5013835;28;101567;-71
2022/05/20 07:32:06;;;;;;;8.40;6.38;;;19.80;86.50;;;;;;5031230;28;98655;-71
2022/05/20 07:34:34;;;;;;;6.85;4.80;;;19.70;86.30;;;;;;5014278;28;98561;-71
2022/05/20 07:37:01;;;;;;;6.97;4.82;;;19.80;86.50;;;;;;5032072;28;99229;-71
2022/05/20 07:39:28;;;;;;;7.43;6.57;;;20.00;86.20;;;;;;5013586;28;100047;-71
2022/05/20 07:41:55;;;;;;;7.35;6.53;;;20.20;86.20;;;;;;4997693;28;98579;-71
2022/05/20 07:44:22;;;;;;;6.63;5.82;;;20.50;85.90;;;;;;5031316;28;98536;-71
2022/05/20 07:46:49;;;;;;;4.93;4.40;;;20.80;84.80;;;;;;5031850;28;101007;-71
2022/05/20 07:49:16;;;;;;;6.82;6.13;;;21.00;83.50;;;;;;5013637;28;101004;-71
2022/05/20 07:51:47;;;;;;;11.23;5.60;;;20.80;82.30;;;;;;5014143;28;98695;-71
2022/05/20 07:54:19;;;;;;;7.00;5.15;;;20.80;82.80;;;;;;5031924;28;100105;-71
2022/05/20 07:56:55;;;;;;;4.97;3.80;;;20.80;81.80;;;;;;5013743;28;99402;-71
2022/05/20 07:59:27;;;;;;;8.15;5.65;;;20.80;81.70;;;;;;5013886;28;99022;-71
2022/05/20 08:01:55;;;;;;;8.63;6.53;;;20.90;82.50;;;;;;5032571;28;98851;-71
2022/05/20 08:07:16;;;;;;;7.07;6.22;;;21.50;82.20;;;;;;5013431;28;101884;-72
2022/05/20 08:09:43;;;;;;;7.55;5.90;;;22.30;80.70;;;;;;5031262;28;99068;-72
2022/05/20 08:12:10;;;;;;;6.30;5.68;;;22.70;75.60;;;;;;5014607;28;97783;-72
2022/05/20 08:14:45;;;;;;;9.65;6.15;;;23.20;75.40;;;;;;5013608;28;98624;-71
2022/05/20 08:17:12;;;;;;;6.47;5.78;;;23.90;74.40;;;;;;5013073;28;101834;-72
2022/05/20 08:19:39;;;;;;;7.03;5.15;;;24.60;72.60;;;;;;5012393;28;112844;-72
2022/05/20 08:22:06;;;;;;;5.95;5.47;;;25.20;70.80;;;;;;5032018;28;98503;-72
2022/05/20 08:24:34;;;;;;;6.78;4.93;;;26.00;68.90;;;;;;5016074;28;98596;-72
2022/05/20 08:27:01;;;;;;;4.50;4.10;;;26.70;65.50;;;;;;5034714;28;99217;-72
2022/05/20 08:29:31;;;;;;;7.32;6.65;;;27.10;63.70;;;;;;5034869;28;99083;-72
2022/05/20 08:31:57;;;;;;;4.93;4.20;;;27.30;63.20;;;;;;5033348;28;98566;-72
2022/05/20 08:34:57;;;;;;;4.32;3.92;;;27.80;62.10;;;;;;5035214;28;98495;-72
2022/05/20 08:37:24;;;;;;;5.00;4.25;;;28.70;58.90;;;;;;5034107;28;98495;-72
2022/05/20 08:39:51;;;;;;;5.15;4.65;;;28.90;58.10;;;;;;5034840;28;98962;-72
2022/05/20 08:42:26;;;;;;;5.10;4.57;;;29.10;56.90;;;;;;5018054;28;98553;-72
2022/05/20 08:44:53;;;;;;;6.88;5.10;;;29.00;56.50;;;;;;5034604;28;99260;-72
2022/05/20 08:47:38;;;;;;;6.80;4.68;;;28.70;54.00;;;;;;4999746;28;99605;-72
2022/05/20 08:50:08;;;;;;;6.05;4.72;;;28.80;55.20;;;;;;5016159;28;102976;-72
2022/05/20 08:52:35;;;;;;;5.95;5.45;;;28.70;55.50;;;;;;5033517;28;98563;-72
2022/05/20 08:55:02;;;;;;;5.43;4.70;;;28.60;55.60;;;;;;5000059;28;98678;-72
2022/05/20 08:57:38;;;;;;;5.70;5.20;;;28.70;55.10;;;;;;5034272;28;99511;-72
2022/05/20 09:00:11;;;;;;;6.25;4.55;;;28.60;55.10;;;;;;5032884;28;102157;-72
2022/05/20 09:02:38;;;;;;;;;;;28.60;54.60;;;;;;5017138;28;98284;-72
2022/05/20 09:05:20;;;;;;;5.25;4.25;;;28.00;54.20;;;;;;5034423;28;98674;-72
2022/05/20 09:07:55;;;;;;;6.32;5.65;;;27.60;53.10;;;;;;5015931;28;101921;-72
2022/05/20 09:10:41;;;;;;;5.38;4.88;;;27.10;56.20;;;;;;5016764;28;99704;-72
2022/05/20 09:13:10;;;;;;;;;;;26.90;58.30;;;;;;5016683;28;98580;-72
2022/05/20 09:15:49;;;;;;;5.95;5.35;;;26.30;58.60;;;;;;5035476;28;98532;-72
2022/05/20 09:18:29;;;;;;;6.65;5.72;;;26.50;59.70;;;;;;5032958;28;99498;-72
2022/05/20 09:20:56;;;;;;;6.13;5.25;;;26.80;58.60;;;;;;5033901;28;100669;-72
2022/05/20 09:23:25;;;;;;;6.40;4.80;;;26.90;58.70;;;;;;5034463;28;98494;-72
2022/05/20 09:26:06;;;;;;;6.57;5.97;;;27.00;58.50;;;;;;5032781;28;98666;-72
2022/05/20 09:28:47;;;;;;;5.28;4.80;;;27.10;57.70;;;;;;5034020;28;98302;-72
2022/05/20 09:31:52;;;;;;;7.32;6.60;;;26.90;57.50;;;;;;5033880;28;98474;-72
2022/05/20 09:34:41;;;;;;;7.28;5.68;;;26.50;56.90;;;;;;4994273;28;98518;-72
2022/05/20 09:37:16;;;;;;;6.68;5.97;;;26.00;59.30;;;;;;5033936;28;99135;-72
2022/05/20 09:39:46;;;;;;;6.85;6.32;;;25.70;61.40;;;;;;5033407;28;99347;-72
2022/05/20 09:42:25;;;;;;;6.20;5.63;;;25.60;61.40;;;;;;5033584;28;98901;-72
2022/05/20 09:44:58;;;;;;;5.63;5.20;;;25.60;61.80;;;;;;5016223;28;98521;-72
2022/05/20 09:47:47;;;;;;;6.30;5.80;;;25.50;60.80;;;;;;5016270;28;98518;-72
2022/05/20 09:50:17;;;;;;;7.35;5.38;;;25.70;59.70;;;;;;5032351;28;99709;-72
2022/05/20 09:52:56;;;;;;;7.72;6.63;;;25.60;59.70;;;;;;5033399;28;99015;-71
2022/05/20 09:55:31;;;;;;;7.38;5.40;;;25.70;60.90;;;;;;5032724;28;97817;-72
2022/05/20 09:58:15;;;;;;;5.72;5.22;;;25.80;60.60;;;;;;5033441;28;98485;-71
2022/05/20 10:00:56;;;;;;;6.55;5.95;;;26.00;58.90;;;;;;5033506;28;99342;-72
2022/05/20 10:03:41;;;;;;;5.97;5.45;;;26.00;59.30;;;;;;5014644;28;101591;-72
2022/05/20 10:06:20;;;;;;;5.57;5.18;;;26.00;58.40;;;;;;5032175;28;98567;-72
2022/05/20 10:09:22;;;;;;;5.93;4.75;;;26.30;56.90;;;;;;5015720;28;98462;-71
2022/05/20 10:12:07;;;;;;;6.32;5.88;;;26.30;56.70;;;;;;5033087;28;99445;-72
2022/05/20 10:14:57;;;;;;;6.40;5.47;;;26.20;56.70;;;;;;5014863;28;101629;-72
2022/05/20 10:17:43;;;;;;;5.22;4.72;;;25.90;57.30;;;;;;5033804;28;98559;-71
2022/05/20 10:20:25;;;;;;;6.00;5.50;;;25.90;59.30;;;;;;5015400;28;98558;-72
2022/05/20 10:23:22;;;;;;;7.28;4.63;;;25.90;59.00;;;;;;5031594;28;101019;-72
2022/05/20 10:26:16;;;;;;;6.05;5.55;;;26.00;59.00;;;;;;5032819;28;99949;-72
2022/05/20 10:34:57;;;;;;;5.20;4.57;;;26.00;56.90;;;;;;5032866;28;99284;-72
2022/05/20 10:37:51;;;;;;;6.18;5.57;;;26.00;56.00;;;;;;5014408;28;101545;-72
2022/05/20 10:40:36;;;;;;;;;;;26.00;55.20;;;;;;5033610;28;99012;-72
2022/05/20 10:43:28;;;;;;;3.95;3.58;;;25.70;56.00;;;;;;5015847;28;99081;-72
2022/05/20 10:49:58;;;;;;;4.55;4.15;;;26.10;55.20;;;;;;5014073;28;101704;-72
2022/05/20 10:52:50;;;;;;;5.82;4.93;;;26.40;55.20;;;;;;4976652;28;99753;-72
2022/05/20 10:55:30;;;;;;;5.75;5.30;;;26.40;57.10;;;;;;5015264;28;99058;-72
2022/05/20 10:58:43;;;;;;;6.13;5.60;;;26.40;57.30;;;;;;5014241;28;100273;-72
2022/05/20 11:01:28;;;;;;;6.50;5.90;;;26.50;58.00;;;;;;5030731;28;99329;-71
2022/05/20 11:04:33;;;;;;;7.03;6.38;;;26.40;57.20;;;;;;5014361;28;98659;-71
2022/05/20 11:07:23;;;;;;;8.30;7.43;;;26.50;57.70;;;;;;5031097;28;98585;-72
2022/05/20 11:10:07;;;;;;;9.00;7.90;;;26.40;58.80;;;;;;5030862;28;101773;-72
2022/05/20 11:13:01;;;;;;;8.32;7.63;;;26.30;56.60;;;;;;5032605;28;98938;-72
2022/05/20 11:15:34;;;;;;;6.30;5.70;;;26.20;57.80;;;;;;5014674;28;98520;-72
2022/05/20 11:18:11;;;;;;;6.82;6.22;;;25.90;57.00;;;;;;5032299;28;99037;-71
2022/05/20 11:20:50;;;;;;;6.47;5.72;;;25.90;56.20;;;;;;5032781;28;98441;-72
2022/05/20 11:23:36;;;;;;;7.28;6.65;;;25.90;55.60;;;;;;5013750;28;100684;-72
2022/05/20 11:26:20;;;;;;;6.63;6.13;;;25.70;56.10;;;;;;5030911;28;98657;-71
2022/05/20 11:28:47;;;;;;;5.47;4.97;;;25.50;54.90;;;;;;5030198;28;99330;-72
2022/05/20 11:31:33;;;;;;;6.65;6.05;;;25.50;55.40;;;;;;5032136;28;99237;-72
2022/05/20 11:34:21;;;;;;;6.40;5.80;;;25.70;55.30;;;;;;5031677;28;98986;-71
2022/05/20 11:37:09;;;;;;;7.53;6.72;;;25.50;54.20;;;;;;5032723;28;98869;-71
2022/05/20 11:39:42;;;;;;;5.78;5.20;;;25.50;53.60;;;;;;5032388;28;99094;-71
2022/05/20 11:42:46;;;;;;;6.32;5.93;;;25.40;53.80;;;;;;5031827;28;99316;-71
2022/05/20 11:45:26;;;;;;;6.15;5.55;;;25.40;53.20;;;;;;5014624;28;99764;-72
2022/05/20 11:48:09;;;;;;;6.22;5.72;;;25.30;54.40;;;;;;5009696;28;97808;-72
2022/05/20 11:53:43;;;;;;;6.07;5.50;;;25.40;54.00;;;;;;5044738;27;1563664;-71
2022/05/20 11:56:32;;;;;;;5.72;5.22;;;25.20;51.80;;;;;;5076035;27;88283;-71
2022/05/20 11:59:09;;;;;;;5.10;4.70;;;25.20;49.80;;;;;;5044371;27;87522;-71
2022/05/20 12:01:37;;;;;;;6.63;6.03;;;25.10;50.90;;;;;;5032901;28;100971;-71
2022/05/20 12:04:07;;;;;;;7.40;6.82;;;25.10;52.00;;;;;;5033467;28;90890;-71
2022/05/20 12:06:46;;;;;;;5.85;5.35;;;25.00;53.10;;;;;;5033795;28;87626;-71
2022/05/20 12:09:50;;;;;;;6.32;5.72;;;24.90;52.60;;;;;;5033430;28;89369;-72
2022/05/20 12:12:25;;;;;;;6.32;5.88;;;25.10;52.60;;;;;;5016936;28;89934;-71
2022/05/20 12:14:59;;;;;;;5.47;4.97;;;25.30;51.80;;;;;;5033473;28;87980;-72
2022/05/20 12:17:39;;;;;;;7.93;7.22;;;25.30;53.60;;;;;;5033245;28;89694;-71
2022/05/20 12:25:58;;;;;;;6.95;5.80;;;25.60;53.60;;;;;;5033319;28;88900;-71
2022/05/20 12:28:25;;;;;;;7.95;7.25;;;25.50;54.70;;;;;;5034592;28;87498;-72
2022/05/20 12:31:22;;;;;;;8.77;8.05;;;25.60;54.80;;;;;;5033293;28;90043;-71
2022/05/20 12:34:03;;;;;;;9.15;8.45;;;25.60;53.70;;;;;;5034798;28;88499;-72
2022/05/20 12:36:30;;;;;;;8.15;7.47;;;25.60;55.10;;;;;;5034398;28;88045;-71
2022/05/20 12:39:40;;;;;;;7.88;7.25;;;25.70;55.40;;;;;;5033103;28;89762;-72
2022/05/20 12:42:24;;;;;;;9.82;8.93;;;25.70;51.20;;;;;;5032898;28;87738;-72
2022/05/20 12:44:52;;;;;;;10.60;9.60;;;25.80;50.60;;;;;;5050086;27;88386;-71
2022/05/20 12:47:28;;;;;;;11.30;10.27;;;25.80;51.30;;;;;;5034035;28;87612;-72
2022/05/20 12:50:08;;;;;;;12.05;10.93;;;26.10;52.70;;;;;;5033584;28;89129;-72
2022/05/20 12:52:49;;;;;;;10.45;9.65;;;26.20;51.70;;;;;;5033301;28;89122;-71
2022/05/20 12:55:22;;;;;;;9.50;8.70;;;26.00;50.70;;;;;;5034247;28;88460;-72
2022/05/20 12:57:49;;;;;;;9.20;8.27;;;26.10;51.50;;;;;;5034655;28;87533;-71
2022/05/20 13:00:17;;;;;;;8.48;7.22;;;26.00;52.10;;;;;;5033981;28;87505;-72
2022/05/20 13:02:52;;;;;;;8.02;7.43;;;26.00;52.20;;;;;;5024698;28;87617;-71
2022/05/20 13:05:36;;;;;;;7.32;6.60;;;26.00;53.60;;;;;;5036213;28;88459;-72
2022/05/20 13:08:09;;;;;;;6.57;5.90;;;25.80;54.90;;;;;;5020805;28;88147;-71
2022/05/20 13:10:40;;;;;;;6.72;6.13;;;25.60;55.60;;;;;;5020694;28;87539;-71
2022/05/20 13:13:16;;;;;;;6.65;6.15;;;25.50;56.30;;;;;;5020838;28;87355;-72
2022/05/20 13:16:06;;;;;;;7.68;6.60;;;25.40;57.70;;;;;;5019061;28;91084;-71
2022/05/20 13:18:39;;;;;;;6.20;5.70;;;25.20;58.00;;;;;;5018995;28;90796;-71
2022/05/20 13:21:19;;;;;;;6.28;5.10;;;25.10;57.50;;;;;;5020523;28;87672;-71
2022/05/20 13:23:49;;;;;;;6.40;5.38;;;25.10;57.90;;;;;;5019217;28;87887;-71
2022/05/20 13:26:28;;;;;;;4.90;4.50;;;24.90;58.00;;;;;;5018522;28;89968;-71
2022/05/20 13:29:08;;;;;;;;;;;24.70;58.30;;;;;;5020997;28;89157;-71
2022/05/20 13:31:36;;;;;;;5.43;5.00;;;24.40;57.70;;;;;;5020183;28;87549;-71
2022/05/20 13:34:03;;;;;;;6.03;5.53;;;24.30;58.10;;;;;;5020470;28;87594;-71
2022/05/20 13:36:45;;;;;;;6.40;4.55;;;24.20;58.50;;;;;;5019955;28;88355;-71
2022/05/20 13:39:23;;;;;;;5.90;5.40;;;24.10;58.00;;;;;;5020273;28;87571;-72
2022/05/20 13:41:51;;;;;;;6.38;5.90;;;24.00;58.80;;;;;;5019139;28;87512;-72
2022/05/20 13:44:23;;;;;;;5.37;4.90;;;23.80;59.30;;;;;;5019078;28;87477;-72
2022/05/20 13:49:41;;;;;;;5.10;4.68;;;23.60;60.50;;;;;;5020224;28;87768;-72
2022/05/20 13:52:10;;;;;;;5.60;5.07;;;23.60;61.60;;;;;;5017879;28;88365;-72
2022/05/20 13:55:07;;;;;;;5.70;4.97;;;23.50;62.90;;;;;;5019733;28;87565;-72
2022/05/20 13:57:47;;;;;;;6.35;5.28;;;23.50;64.40;;;;;;5017114;28;88117;-72
2022/05/20 14:00:28;;;;;;;5.80;5.13;;;23.40;66.10;;;;;;5019912;28;88601;-72
2022/05/20 14:03:03;;;;;;;8.57;5.07;;;23.30;67.50;;;;;;5019984;28;87426;-72